createdAt,value
2018-08-12T00:00:43.088Z,14.44
2018-08-12T00:02:36.079Z,14.47
2018-08-12T00:03:36.132Z,14.50
2018-08-12T00:05:29.121Z,14.50
2018-08-12T00:06:29.183Z,14.41
2018-08-12T00:08:22.177Z,14.48
2018-08-12T00:09:22.231Z,14.44
2018-08-12T00:11:15.219Z,14.28
2018-08-12T00:12:15.282Z,14.29
2018-08-12T00:14:08.282Z,14.37
2018-08-12T00:15:08.377Z,14.44
2018-08-12T00:17:01.326Z,14.30
2018-08-12T00:18:01.381Z,14.30
2018-08-12T00:19:54.368Z,14.36
2018-08-12T00:20:54.435Z,14.25
2018-08-12T00:22:47.425Z,14.30
2018-08-12T00:23:47.478Z,14.30
2018-08-12T00:25:40.465Z,14.20
2018-08-12T00:26:40.527Z,14.17
2018-08-12T00:28:33.524Z,14.17
2018-08-12T00:29:33.577Z,14.08
2018-08-12T00:31:26.563Z,14.07
2018-08-12T00:32:26.625Z,13.97
2018-08-12T00:34:19.621Z,14.05
2018-08-12T00:35:19.674Z,14.10
2018-08-12T00:37:12.672Z,14.14
2018-08-12T00:38:12.728Z,14.15
2018-08-12T00:40:05.713Z,14.10
2018-08-12T00:41:05.775Z,13.89
2018-08-12T00:42:58.770Z,13.86
2018-08-12T00:43:58.825Z,13.81
2018-08-12T00:45:51.825Z,13.72
2018-08-12T00:46:51.888Z,13.86
2018-08-12T00:48:44.883Z,13.87
2018-08-12T00:49:44.939Z,13.99
2018-08-12T00:51:37.932Z,13.93
2018-08-12T00:52:37.994Z,13.95
2018-08-12T00:54:30.985Z,13.87
2018-08-12T00:55:31.038Z,13.78
2018-08-12T00:57:24.034Z,13.83
2018-08-12T00:58:24.088Z,13.68
2018-08-12T01:00:17.085Z,13.85
2018-08-12T01:01:17.144Z,13.72
2018-08-12T01:03:10.141Z,13.96
2018-08-12T01:04:10.194Z,13.89
2018-08-12T01:06:03.180Z,13.93
2018-08-12T01:07:03.251Z,13.92
2018-08-12T01:08:56.236Z,13.90
2018-08-12T01:09:56.298Z,13.77
2018-08-12T01:11:49.285Z,13.85
2018-08-12T01:12:49.342Z,13.89
2018-08-12T01:14:42.337Z,13.86
2018-08-12T01:15:42.433Z,13.83
2018-08-12T01:17:35.394Z,13.62
2018-08-12T01:18:35.435Z,13.63
2018-08-12T01:20:28.434Z,13.54
2018-08-12T01:21:28.496Z,13.57
2018-08-12T01:23:21.490Z,13.65
2018-08-12T01:24:21.546Z,13.67
2018-08-12T01:26:14.560Z,13.59
2018-08-12T01:27:14.597Z,13.65
2018-08-12T01:29:07.589Z,13.53
2018-08-12T01:30:07.645Z,13.42
2018-08-12T01:32:00.631Z,13.30
2018-08-12T01:33:00.690Z,13.19
2018-08-12T01:34:53.685Z,13.16
2018-08-12T01:35:53.752Z,13.28
2018-08-12T01:37:46.735Z,13.22
2018-08-12T01:38:46.790Z,13.28
2018-08-12T01:40:39.788Z,13.30
2018-08-12T01:41:39.842Z,13.27
2018-08-12T01:43:32.834Z,13.22
2018-08-12T01:44:32.889Z,13.30
2018-08-12T01:46:25.876Z,13.31
2018-08-12T01:47:25.936Z,13.28
2018-08-12T01:49:18.932Z,13.19
2018-08-12T01:50:18.989Z,13.08
2018-08-12T01:52:11.974Z,12.94
2018-08-12T01:53:12.036Z,12.85
2018-08-12T01:55:05.031Z,12.85
2018-08-12T01:56:05.084Z,12.86
2018-08-12T01:57:58.070Z,12.97
2018-08-12T01:58:58.131Z,12.94
2018-08-12T02:00:51.123Z,12.90
2018-08-12T02:01:51.179Z,12.87
2018-08-12T02:03:44.173Z,12.87
2018-08-12T02:04:44.230Z,12.83
2018-08-12T02:06:37.215Z,12.93
2018-08-12T02:07:37.295Z,12.90
2018-08-12T02:09:30.272Z,12.90
2018-08-12T02:10:30.323Z,12.93
2018-08-12T02:12:23.316Z,12.87
2018-08-12T02:13:23.369Z,12.85
2018-08-12T02:15:16.363Z,12.82
2018-08-12T02:16:16.419Z,12.86
2018-08-12T02:18:09.408Z,12.94
2018-08-12T02:19:09.465Z,12.87
2018-08-12T02:21:02.458Z,13.00
2018-08-12T02:22:02.509Z,13.04
2018-08-12T02:23:55.501Z,12.91
2018-08-12T02:24:55.557Z,12.83
2018-08-12T02:26:48.542Z,12.98
2018-08-12T02:27:48.602Z,13.04
2018-08-12T02:29:41.595Z,12.97
2018-08-12T02:30:41.652Z,12.93
2018-08-12T02:32:34.641Z,13.00
2018-08-12T02:33:34.698Z,12.98
2018-08-12T02:35:27.693Z,12.98
2018-08-12T02:36:27.744Z,12.98
2018-08-12T02:38:20.740Z,13.08
2018-08-12T02:39:20.793Z,13.09
2018-08-12T02:41:14.298Z,12.98
2018-08-12T02:42:14.349Z,12.94
2018-08-12T02:44:07.343Z,12.90
2018-08-12T02:45:07.395Z,12.79
2018-08-12T02:47:00.381Z,12.75
2018-08-12T02:48:00.444Z,12.82
2018-08-12T02:49:53.434Z,12.72
2018-08-12T02:50:53.516Z,12.62
2018-08-12T02:52:46.484Z,12.65
2018-08-12T02:53:46.536Z,12.72
2018-08-12T02:55:39.531Z,12.79
2018-08-12T02:56:39.583Z,12.72
2018-08-12T02:58:32.574Z,12.75
2018-08-12T02:59:32.629Z,12.68
2018-08-12T03:01:25.628Z,12.65
2018-08-12T03:02:25.679Z,12.49
2018-08-12T03:04:18.674Z,12.53
2018-08-12T03:05:18.725Z,12.37
2018-08-12T03:07:11.714Z,12.49
2018-08-12T03:08:11.770Z,12.42
2018-08-12T03:10:04.765Z,12.50
2018-08-12T03:11:04.817Z,12.40
2018-08-12T03:12:57.801Z,12.54
2018-08-12T03:13:57.863Z,12.53
2018-08-12T03:15:50.856Z,12.42
2018-08-12T03:16:50.906Z,12.27
2018-08-12T03:18:43.892Z,12.22
2018-08-12T03:19:43.950Z,12.15
2018-08-12T03:21:36.946Z,12.21
2018-08-12T03:22:37.036Z,12.13
2018-08-12T03:24:29.993Z,12.04
2018-08-12T03:25:30.047Z,12.09
2018-08-12T03:27:23.031Z,12.12
2018-08-12T03:28:23.091Z,12.03
2018-08-12T03:30:16.238Z,12.09
2018-08-12T03:31:16.135Z,12.00
2018-08-12T03:33:09.122Z,12.00
2018-08-12T03:34:09.183Z,11.90
2018-08-12T03:36:02.177Z,11.99
2018-08-12T03:37:02.227Z,11.91
2018-08-12T03:38:55.213Z,11.81
2018-08-12T03:39:55.275Z,11.66
2018-08-12T03:41:48.774Z,11.66
2018-08-12T03:42:48.827Z,11.62
2018-08-12T03:44:41.821Z,11.70
2018-08-12T03:45:41.872Z,11.73
2018-08-12T03:47:34.860Z,11.99
2018-08-12T03:48:34.921Z,12.04
2018-08-12T03:50:27.914Z,12.04
2018-08-12T03:51:27.967Z,12.09
2018-08-12T03:53:20.956Z,12.10
2018-08-12T03:54:21.015Z,12.21
2018-08-12T03:56:14.009Z,12.20
2018-08-12T03:57:14.058Z,12.22
2018-08-12T03:59:07.046Z,12.22
2018-08-12T04:00:07.107Z,12.18
2018-08-12T04:02:00.101Z,12.22
2018-08-12T04:03:00.153Z,12.20
2018-08-12T04:04:53.146Z,12.24
2018-08-12T04:05:53.199Z,12.29
2018-08-12T04:07:46.186Z,12.24
2018-08-12T04:08:46.247Z,12.25
2018-08-12T04:10:39.240Z,12.36
2018-08-12T04:11:39.291Z,12.37
2018-08-12T04:13:32.280Z,12.42
2018-08-12T04:14:32.338Z,12.43
2018-08-12T04:16:25.337Z,12.45
2018-08-12T04:17:25.393Z,12.42
2018-08-12T04:19:18.381Z,12.40
2018-08-12T04:20:18.444Z,12.47
2018-08-12T04:22:11.452Z,12.49
2018-08-12T04:23:11.510Z,12.47
2018-08-12T04:25:04.503Z,12.43
2018-08-12T04:26:04.554Z,12.35
2018-08-12T04:27:57.539Z,12.31
2018-08-12T04:28:57.601Z,12.29
2018-08-12T04:30:50.593Z,12.25
2018-08-12T04:31:50.645Z,12.27
2018-08-12T04:33:43.637Z,12.31
2018-08-12T04:34:43.693Z,12.36
2018-08-12T04:36:36.696Z,12.27
2018-08-12T04:37:36.748Z,12.37
2018-08-12T04:39:29.734Z,12.36
2018-08-12T04:40:29.792Z,12.37
2018-08-12T04:42:22.787Z,12.49
2018-08-12T04:43:22.837Z,12.47
2018-08-12T04:45:15.829Z,12.50
2018-08-12T04:46:15.885Z,12.54
2018-08-12T04:48:08.868Z,12.58
2018-08-12T04:49:08.930Z,12.50
2018-08-12T04:51:01.924Z,12.53
2018-08-12T04:52:01.976Z,12.54
2018-08-12T04:53:54.963Z,12.65
2018-08-12T04:54:55.022Z,12.67
2018-08-12T04:56:48.016Z,12.67
2018-08-12T04:57:48.066Z,12.80
2018-08-12T04:59:41.054Z,12.90
2018-08-12T05:00:41.115Z,12.93
2018-08-12T05:02:34.106Z,13.04
2018-08-12T05:03:34.162Z,12.98
2018-08-12T05:05:27.152Z,13.16
2018-08-12T05:06:27.206Z,13.16
2018-08-12T05:08:20.190Z,13.18
2018-08-12T05:09:20.253Z,13.25
2018-08-12T05:11:13.248Z,13.39
2018-08-12T05:12:13.299Z,13.46
2018-08-12T05:14:06.288Z,13.42
2018-08-12T05:15:06.348Z,13.47
2018-08-12T05:16:59.342Z,13.39
2018-08-12T05:17:59.392Z,13.41
2018-08-12T05:19:52.390Z,13.31
2018-08-12T05:20:52.452Z,13.30
2018-08-12T05:22:45.449Z,13.22
2018-08-12T05:23:45.503Z,13.25
2018-08-12T05:25:38.497Z,13.30
2018-08-12T05:26:38.549Z,13.30
2018-08-12T05:28:31.540Z,13.41
2018-08-12T05:29:31.602Z,13.49
2018-08-12T05:31:24.597Z,13.62
2018-08-12T05:32:24.652Z,13.62
2018-08-12T05:34:17.635Z,13.71
2018-08-12T05:35:17.696Z,13.86
2018-08-12T05:37:10.692Z,13.95
2018-08-12T05:38:10.749Z,14.04
2018-08-12T05:40:03.732Z,14.05
2018-08-12T05:41:03.795Z,14.03
2018-08-12T05:42:56.789Z,14.15
2018-08-12T05:43:56.840Z,14.14
2018-08-12T05:45:49.832Z,14.20
2018-08-12T05:46:49.888Z,14.26
2018-08-12T05:48:42.873Z,14.30
2018-08-12T05:49:42.935Z,14.26
2018-08-12T05:51:35.963Z,14.32
2018-08-12T05:52:35.983Z,14.43
2018-08-12T05:54:28.971Z,14.43
2018-08-12T05:55:29.037Z,14.44
2018-08-12T05:57:22.039Z,14.65
2018-08-12T05:58:22.092Z,14.72
2018-08-12T06:00:15.086Z,14.91
2018-08-12T06:01:15.149Z,14.92
2018-08-12T06:03:08.149Z,15.04
2018-08-12T06:04:08.204Z,15.14
2018-08-12T06:06:01.204Z,15.25
2018-08-12T06:07:01.261Z,15.36
2018-08-12T06:08:54.289Z,15.52
2018-08-12T06:09:54.322Z,15.61
2018-08-12T06:11:47.335Z,15.94
2018-08-12T06:12:47.390Z,16.12
2018-08-12T06:14:40.376Z,16.47
2018-08-12T06:15:40.472Z,16.65
2018-08-12T06:17:33.466Z,17.41
2018-08-12T06:18:33.496Z,18.01
2018-08-12T06:20:26.484Z,19.33
2018-08-12T06:21:26.544Z,20.06
2018-08-12T06:23:19.542Z,21.67
2018-08-12T06:24:19.597Z,22.17
2018-08-12T06:26:12.594Z,22.90
2018-08-12T06:27:12.650Z,23.51
2018-08-12T06:29:05.639Z,24.20
2018-08-12T06:30:05.703Z,24.48
2018-08-12T06:31:58.706Z,25.18
2018-08-12T06:32:58.763Z,25.65
2018-08-12T06:34:51.761Z,26.23
2018-08-12T06:35:51.825Z,25.96
2018-08-12T06:37:44.820Z,25.95
2018-08-12T06:38:44.882Z,26.23
2018-08-12T06:40:37.883Z,26.23
2018-08-12T06:41:37.945Z,26.33
2018-08-12T06:43:30.957Z,26.73
2018-08-12T06:44:31.022Z,27.21
2018-08-12T06:46:24.047Z,27.48
2018-08-12T06:47:24.084Z,27.90
2018-08-12T06:49:17.087Z,28.38
2018-08-12T06:50:17.153Z,28.74
2018-08-12T06:52:10.159Z,29.01
2018-08-12T06:53:10.225Z,29.54
2018-08-12T06:55:03.225Z,29.57
2018-08-12T06:56:03.293Z,29.97
2018-08-12T06:57:56.302Z,30.59
2018-08-12T06:58:56.367Z,30.94
2018-08-12T07:00:49.372Z,31.46
2018-08-12T07:01:49.443Z,31.22
2018-08-12T07:03:42.458Z,31.36
2018-08-12T07:04:42.523Z,31.77
2018-08-12T07:06:35.533Z,30.62
2018-08-12T07:07:35.598Z,30.39
2018-08-12T07:09:28.608Z,29.95
2018-08-12T07:10:28.685Z,30.73
2018-08-12T07:12:21.694Z,29.72
2018-08-12T07:13:21.760Z,29.05
2018-08-12T07:15:14.774Z,30.15
2018-08-12T07:16:14.839Z,30.87
2018-08-12T07:18:07.860Z,32.11
2018-08-12T07:19:07.924Z,32.77
2018-08-12T07:21:00.948Z,33.73
2018-08-12T07:22:01.008Z,33.36
2018-08-12T07:23:54.025Z,33.83
2018-08-12T07:24:54.093Z,34.11
2018-08-12T07:26:47.109Z,34.21
2018-08-12T07:27:47.177Z,34.60
2018-08-12T07:29:40.190Z,35.05
2018-08-12T07:30:40.292Z,34.60
2018-08-12T07:32:33.286Z,32.34
2018-08-12T07:33:33.354Z,31.47
2018-08-12T07:35:26.375Z,31.15
2018-08-12T07:36:26.442Z,31.94
2018-08-12T07:38:19.474Z,32.77
2018-08-12T07:39:19.529Z,32.23
2018-08-12T07:41:12.540Z,32.45
2018-08-12T07:42:12.615Z,32.08
2018-08-12T07:44:05.638Z,31.81
2018-08-12T07:45:05.705Z,31.73
2018-08-12T07:46:58.732Z,31.73
2018-08-12T07:47:58.802Z,30.83
2018-08-12T07:49:51.814Z,31.22
2018-08-12T07:50:51.889Z,31.43
2018-08-12T07:52:44.906Z,32.70
2018-08-12T07:53:44.977Z,32.56
2018-08-12T07:55:38.124Z,31.47
2018-08-12T07:56:38.063Z,30.30
2018-08-12T07:58:31.081Z,30.02
2018-08-12T07:59:31.150Z,29.10
2018-08-12T08:01:24.162Z,29.65
2018-08-12T08:02:24.237Z,30.05
2018-08-12T08:04:17.275Z,31.85
2018-08-12T08:05:17.321Z,31.77
2018-08-12T08:07:10.340Z,32.12
2018-08-12T08:08:10.406Z,32.40
2018-08-12T08:10:03.419Z,32.86
2018-08-12T08:11:03.492Z,33.62
2018-08-12T08:12:56.515Z,34.74
2018-08-12T08:13:56.580Z,34.61
2018-08-12T08:15:49.594Z,33.62
2018-08-12T08:16:49.666Z,33.47
2018-08-12T08:18:42.691Z,31.21
2018-08-12T08:19:42.799Z,30.59
2018-08-12T08:21:35.780Z,31.10
2018-08-12T08:22:35.853Z,31.70
2018-08-12T08:24:28.874Z,32.85
2018-08-12T08:25:29.025Z,33.43
2018-08-12T08:27:21.971Z,34.13
2018-08-12T08:28:22.045Z,33.02
2018-08-12T08:30:15.059Z,32.18
2018-08-12T08:31:15.194Z,32.38
2018-08-12T08:33:08.175Z,32.33
2018-08-12T08:34:08.255Z,32.65
2018-08-12T08:36:01.253Z,33.68
2018-08-12T08:37:01.328Z,34.21
2018-08-12T08:38:54.354Z,35.04
2018-08-12T08:39:54.434Z,35.24
2018-08-12T08:41:47.453Z,34.74
2018-08-12T08:42:47.517Z,34.71
2018-08-12T08:44:41.050Z,34.51
2018-08-12T08:45:41.113Z,34.29
2018-08-12T08:47:34.135Z,34.16
2018-08-12T08:48:34.205Z,33.98
2018-08-12T08:50:27.230Z,34.99
2018-08-12T08:51:27.300Z,34.95
2018-08-12T08:53:20.325Z,33.98
2018-08-12T08:54:20.401Z,33.15
2018-08-12T08:56:13.487Z,32.82
2018-08-12T08:57:13.487Z,33.32
2018-08-12T08:59:06.514Z,33.86
2018-08-12T09:00:06.582Z,33.96
2018-08-12T09:01:59.602Z,33.14
2018-08-12T09:02:59.678Z,32.80
2018-08-12T09:04:52.747Z,33.22
2018-08-12T09:05:52.766Z,33.67
2018-08-12T09:07:45.791Z,33.83
2018-08-12T09:08:46.282Z,34.16
2018-08-12T09:10:38.878Z,34.92
2018-08-12T09:11:38.957Z,34.71
2018-08-12T09:13:31.995Z,35.18
2018-08-12T09:14:32.068Z,35.58
2018-08-12T09:16:25.084Z,35.30
2018-08-12T09:17:25.159Z,35.46
2018-08-12T09:19:18.185Z,34.20
2018-08-12T09:20:18.265Z,34.50
2018-08-12T09:22:11.275Z,34.57
2018-08-12T09:23:11.351Z,34.16
2018-08-12T09:25:04.376Z,33.20
2018-08-12T09:26:04.445Z,32.45
2018-08-12T09:27:57.476Z,31.02
2018-08-12T09:28:57.546Z,30.54
2018-08-12T09:30:50.562Z,29.54
2018-08-12T09:31:50.638Z,29.26
2018-08-12T09:33:43.659Z,29.10
2018-08-12T09:34:43.727Z,29.14
2018-08-12T09:36:36.740Z,29.02
2018-08-12T09:37:36.814Z,29.04
2018-08-12T09:39:29.833Z,28.85
2018-08-12T09:40:29.898Z,28.89
2018-08-12T09:42:22.907Z,28.44
2018-08-12T09:43:22.983Z,28.41
2018-08-12T09:45:16.506Z,28.37
2018-08-12T09:46:16.567Z,28.48
2018-08-12T09:48:09.583Z,28.74
2018-08-12T09:49:09.646Z,28.79
2018-08-12T09:51:02.650Z,28.74
2018-08-12T09:52:02.729Z,28.70
2018-08-12T09:53:55.736Z,28.25
2018-08-12T09:54:55.799Z,28.10
2018-08-12T09:56:48.804Z,27.98
2018-08-12T09:57:48.875Z,27.77
2018-08-12T09:59:41.884Z,27.96
2018-08-12T10:00:41.952Z,27.90
2018-08-12T10:02:34.959Z,28.00
2018-08-12T10:03:35.034Z,28.08
2018-08-12T10:05:28.037Z,28.39
2018-08-12T10:06:28.101Z,28.56
2018-08-12T10:08:21.110Z,28.62
2018-08-12T10:09:21.175Z,28.54
2018-08-12T10:11:14.178Z,28.48
2018-08-12T10:12:14.247Z,28.47
2018-08-12T10:14:07.261Z,28.41
2018-08-12T10:15:07.321Z,28.45
2018-08-12T10:17:00.330Z,28.47
2018-08-12T10:18:00.398Z,28.62
2018-08-12T10:19:53.408Z,28.47
2018-08-12T10:20:53.470Z,28.35
2018-08-12T10:22:46.474Z,28.14
2018-08-12T10:23:46.545Z,28.22
2018-08-12T10:25:39.557Z,28.05
2018-08-12T10:26:39.617Z,28.01
2018-08-12T10:28:32.631Z,28.04
2018-08-12T10:29:32.700Z,28.23
2018-08-12T10:31:25.694Z,28.07
2018-08-12T10:32:25.762Z,27.89
2018-08-12T10:34:18.770Z,27.96
2018-08-12T10:35:18.838Z,28.14
2018-08-12T10:37:11.839Z,28.32
2018-08-12T10:38:11.907Z,28.45
2018-08-12T10:40:04.920Z,28.41
2018-08-12T10:41:04.984Z,28.35
2018-08-12T10:42:57.981Z,28.27
2018-08-12T10:43:58.056Z,28.12
2018-08-12T10:45:51.058Z,28.11
2018-08-12T10:46:51.122Z,28.07
2018-08-12T10:48:44.141Z,27.93
2018-08-12T10:49:44.194Z,27.96
2018-08-12T10:51:37.197Z,27.73
2018-08-12T10:52:37.264Z,27.82
2018-08-12T10:54:30.276Z,27.90
2018-08-12T10:55:30.338Z,27.95
2018-08-12T10:57:23.340Z,27.98
2018-08-12T10:58:23.408Z,27.93
2018-08-12T11:00:16.419Z,28.19
2018-08-12T11:01:16.481Z,28.10
2018-08-12T11:03:09.487Z,28.08
2018-08-12T11:04:09.552Z,28.04
2018-08-12T11:06:02.561Z,27.92
2018-08-12T11:07:02.623Z,27.89
2018-08-12T11:08:55.629Z,27.83
2018-08-12T11:09:55.693Z,27.92
2018-08-12T11:11:48.701Z,27.93
2018-08-12T11:12:48.834Z,28.00
2018-08-12T11:14:41.775Z,28.10
2018-08-12T11:15:41.837Z,28.19
2018-08-12T11:17:34.842Z,28.15
2018-08-12T11:18:34.907Z,28.17
2018-08-12T11:20:27.979Z,28.07
2018-08-12T11:21:27.977Z,27.85
2018-08-12T11:23:20.986Z,27.74
2018-08-12T11:24:21.054Z,27.75
2018-08-12T11:26:14.067Z,27.90
2018-08-12T11:27:14.128Z,28.00
2018-08-12T11:29:07.149Z,28.23
2018-08-12T11:30:07.194Z,28.33
2018-08-12T11:32:00.200Z,28.41
2018-08-12T11:33:00.265Z,28.39
2018-08-12T11:34:53.332Z,28.57
2018-08-12T11:35:53.335Z,28.64
2018-08-12T11:37:46.340Z,28.82
2018-08-12T11:38:46.410Z,28.81
2018-08-12T11:40:39.415Z,28.82
2018-08-12T11:41:39.477Z,28.76
2018-08-12T11:43:32.484Z,28.66
2018-08-12T11:44:32.556Z,28.51
2018-08-12T11:46:25.563Z,28.48
2018-08-12T11:47:25.666Z,28.56
2018-08-12T11:49:18.631Z,28.51
2018-08-12T11:50:18.728Z,28.60
2018-08-12T11:52:11.707Z,28.63
2018-08-12T11:53:11.772Z,28.59
2018-08-12T11:55:04.782Z,28.75
2018-08-12T11:56:04.845Z,28.82
2018-08-12T11:57:57.850Z,28.86
2018-08-12T11:58:57.917Z,28.86
2018-08-12T12:00:50.926Z,28.44
2018-08-12T12:01:50.997Z,28.11
2018-08-12T12:03:43.991Z,28.07
2018-08-12T12:04:44.060Z,28.10
2018-08-12T12:06:37.065Z,28.12
2018-08-12T12:07:37.127Z,28.20
2018-08-12T12:09:30.140Z,28.23
2018-08-12T12:10:30.212Z,28.15
2018-08-12T12:12:23.217Z,28.17
2018-08-12T12:13:23.281Z,28.25
2018-08-12T12:15:16.293Z,28.15
2018-08-12T12:16:16.350Z,28.17
2018-08-12T12:18:09.356Z,28.25
2018-08-12T12:19:09.427Z,28.32
2018-08-12T12:21:02.436Z,28.27
2018-08-12T12:22:02.502Z,28.11
2018-08-12T12:23:55.503Z,28.04
2018-08-12T12:24:55.568Z,28.12
2018-08-12T12:26:48.592Z,28.19
2018-08-12T12:27:48.646Z,28.22
2018-08-12T12:29:41.656Z,28.23
2018-08-12T12:30:41.724Z,28.17
2018-08-12T12:32:34.731Z,28.37
2018-08-12T12:33:34.794Z,28.41
2018-08-12T12:35:27.848Z,28.47
2018-08-12T12:36:27.867Z,28.38
2018-08-12T12:38:20.864Z,28.47
2018-08-12T12:39:20.934Z,28.42
2018-08-12T12:41:13.946Z,28.47
2018-08-12T12:42:14.013Z,28.27
2018-08-12T12:44:07.021Z,28.12
2018-08-12T12:45:07.088Z,28.12
2018-08-12T12:47:00.100Z,28.26
2018-08-12T12:48:00.164Z,28.22
2018-08-12T12:49:53.166Z,28.35
2018-08-12T12:50:53.242Z,28.35
2018-08-12T12:52:46.250Z,28.47
2018-08-12T12:53:46.313Z,28.44
2018-08-12T12:55:39.326Z,28.54
2018-08-12T12:56:39.393Z,28.69
2018-08-12T12:58:32.404Z,28.64
2018-08-12T12:59:32.477Z,28.64
2018-08-12T13:01:25.487Z,28.72
2018-08-12T13:02:25.561Z,28.84
2018-08-12T13:04:18.551Z,28.52
2018-08-12T13:05:18.615Z,28.14
2018-08-12T13:07:11.624Z,28.05
2018-08-12T13:08:11.689Z,28.02
2018-08-12T13:10:04.687Z,28.11
2018-08-12T13:11:04.757Z,28.22
2018-08-12T13:12:57.763Z,28.29
2018-08-12T13:13:57.827Z,28.45
2018-08-12T13:15:51.344Z,28.33
2018-08-12T13:16:51.404Z,28.44
2018-08-12T13:18:44.411Z,28.72
2018-08-12T13:19:44.477Z,28.66
2018-08-12T13:21:37.483Z,28.60
2018-08-12T13:22:37.546Z,28.62
2018-08-12T13:24:30.549Z,28.69
2018-08-12T13:25:30.615Z,28.63
2018-08-12T13:27:23.627Z,28.62
2018-08-12T13:28:23.685Z,28.69
2018-08-12T13:30:16.689Z,28.75
2018-08-12T13:31:16.758Z,28.88
2018-08-12T13:33:09.833Z,28.88
2018-08-12T13:34:09.827Z,29.02
2018-08-12T13:36:02.838Z,29.05
2018-08-12T13:37:02.902Z,28.97
2018-08-12T13:38:55.905Z,29.02
2018-08-12T13:39:55.972Z,29.02
2018-08-12T13:41:48.976Z,28.85
2018-08-12T13:42:49.043Z,28.82
2018-08-12T13:44:42.044Z,28.84
2018-08-12T13:45:42.111Z,28.72
2018-08-12T13:47:35.122Z,28.56
2018-08-12T13:48:35.180Z,28.56
2018-08-12T13:50:28.184Z,28.82
2018-08-12T13:51:28.251Z,28.79
2018-08-12T13:53:21.260Z,28.82
2018-08-12T13:54:21.323Z,28.74
2018-08-12T13:56:14.329Z,28.62
2018-08-12T13:57:14.393Z,28.70
2018-08-12T13:59:07.401Z,28.79
2018-08-12T14:00:07.463Z,28.82
2018-08-12T14:02:00.476Z,28.74
2018-08-12T14:03:00.535Z,28.67
2018-08-12T14:04:53.540Z,28.78
2018-08-12T14:05:53.607Z,28.78
2018-08-12T14:07:46.618Z,28.84
2018-08-12T14:08:46.684Z,28.89
2018-08-12T14:10:39.680Z,29.02
2018-08-12T14:11:39.748Z,29.05
2018-08-12T14:13:32.772Z,29.05
2018-08-12T14:14:32.822Z,28.94
2018-08-12T14:16:26.339Z,28.82
2018-08-12T14:17:26.403Z,28.82
2018-08-12T14:19:19.401Z,29.01
2018-08-12T14:20:19.471Z,28.89
2018-08-12T14:22:12.480Z,28.98
2018-08-12T14:23:12.539Z,29.04
2018-08-12T14:25:05.541Z,29.13
2018-08-12T14:26:05.611Z,29.12
2018-08-12T14:27:58.623Z,29.14
2018-08-12T14:28:58.683Z,29.13
2018-08-12T14:30:51.687Z,29.13
2018-08-12T14:31:51.752Z,29.12
2018-08-12T14:33:44.761Z,29.04
2018-08-12T14:34:44.823Z,29.04
2018-08-12T14:36:37.834Z,28.98
2018-08-12T14:37:37.975Z,29.02
2018-08-12T14:39:30.898Z,29.04
2018-08-12T14:40:30.979Z,29.01
2018-08-12T14:42:23.975Z,29.12
2018-08-12T14:43:24.042Z,29.07
2018-08-12T14:45:17.043Z,28.88
2018-08-12T14:46:17.108Z,28.76
2018-08-12T14:48:10.118Z,28.75
2018-08-12T14:49:10.180Z,28.78
2018-08-12T14:51:03.195Z,28.81
2018-08-12T14:52:03.251Z,28.86
2018-08-12T14:53:56.257Z,28.84
2018-08-12T14:54:56.321Z,28.82
2018-08-12T14:56:49.329Z,28.85
2018-08-12T14:57:49.489Z,28.81
2018-08-12T14:59:42.397Z,28.91
2018-08-12T15:00:42.465Z,28.93
2018-08-12T15:02:35.474Z,28.89
2018-08-12T15:03:35.533Z,28.94
2018-08-12T15:05:28.534Z,29.01
2018-08-12T15:06:28.605Z,28.81
2018-08-12T15:08:21.617Z,28.79
2018-08-12T15:09:21.676Z,28.82
2018-08-12T15:11:14.678Z,28.70
2018-08-12T15:12:14.748Z,28.57
2018-08-12T15:14:07.758Z,28.52
2018-08-12T15:15:07.865Z,28.45
2018-08-12T15:17:00.826Z,28.57
2018-08-12T15:18:00.890Z,28.57
2018-08-12T15:19:53.893Z,28.48
2018-08-12T15:20:53.966Z,28.54
2018-08-12T15:22:47.010Z,28.63
2018-08-12T15:23:47.032Z,28.69
2018-08-12T15:25:40.034Z,28.60
2018-08-12T15:26:40.104Z,28.57
2018-08-12T15:28:33.109Z,28.70
2018-08-12T15:29:33.171Z,28.70
2018-08-12T15:31:26.172Z,28.81
2018-08-12T15:32:26.245Z,28.88
2018-08-12T15:34:19.249Z,28.47
2018-08-12T15:35:19.311Z,28.47
2018-08-12T15:37:12.319Z,28.54
2018-08-12T15:38:12.385Z,28.56
2018-08-12T15:40:05.382Z,28.51
2018-08-12T15:41:05.451Z,28.54
2018-08-12T15:42:58.462Z,28.47
2018-08-12T15:43:58.523Z,28.62
2018-08-12T15:45:51.530Z,28.51
2018-08-12T15:46:51.597Z,28.52
2018-08-12T15:48:44.602Z,28.42
2018-08-12T15:49:44.688Z,28.42
2018-08-12T15:51:37.669Z,28.44
2018-08-12T15:52:37.738Z,28.33
2018-08-12T15:54:30.745Z,28.35
2018-08-12T15:55:30.808Z,28.30
2018-08-12T15:57:23.820Z,28.41
2018-08-12T15:58:23.880Z,28.42
2018-08-12T16:00:16.885Z,28.45
2018-08-12T16:01:16.952Z,28.44
2018-08-12T16:03:09.958Z,28.44
2018-08-12T16:04:10.024Z,28.52
2018-08-12T16:06:03.021Z,28.52
2018-08-12T16:07:03.091Z,28.51
2018-08-12T16:08:56.105Z,28.59
2018-08-12T16:09:56.162Z,28.69
2018-08-12T16:11:49.166Z,28.67
2018-08-12T16:12:49.242Z,28.62
2018-08-12T16:14:42.243Z,28.60
2018-08-12T16:15:42.305Z,28.62
2018-08-12T16:17:35.313Z,28.63
2018-08-12T16:18:35.375Z,28.56
2018-08-12T16:20:28.381Z,28.67
2018-08-12T16:21:28.447Z,28.66
2018-08-12T16:23:21.455Z,28.42
2018-08-12T16:24:21.519Z,28.45
2018-08-12T16:26:14.521Z,28.33
2018-08-12T16:27:14.589Z,28.33
2018-08-12T16:29:07.601Z,28.29
2018-08-12T16:30:07.663Z,28.23
2018-08-12T16:32:00.672Z,28.19
2018-08-12T16:33:00.736Z,28.27
2018-08-12T16:34:53.745Z,28.29
2018-08-12T16:35:53.808Z,28.19
2018-08-12T16:37:46.813Z,28.26
2018-08-12T16:38:46.879Z,28.12
2018-08-12T16:40:39.930Z,28.14
2018-08-12T16:41:39.945Z,28.11
2018-08-12T16:43:32.952Z,28.08
2018-08-12T16:44:33.016Z,28.14
2018-08-12T16:46:26.019Z,28.05
2018-08-12T16:47:26.087Z,28.12
2018-08-12T16:49:19.114Z,28.00
2018-08-12T16:50:19.156Z,28.05
2018-08-12T16:52:12.156Z,28.10
2018-08-12T16:53:12.226Z,28.04
2018-08-12T16:55:05.269Z,28.04
2018-08-12T16:56:05.330Z,28.02
2018-08-12T16:57:58.335Z,27.90
2018-08-12T16:58:58.400Z,27.98
2018-08-12T17:00:51.400Z,27.93
2018-08-12T17:01:51.465Z,27.98
2018-08-12T17:03:44.474Z,28.01
2018-08-12T17:04:44.537Z,28.02
2018-08-12T17:06:37.542Z,28.11
2018-08-12T17:07:37.610Z,28.10
2018-08-12T17:09:30.621Z,28.11
2018-08-12T17:10:30.681Z,28.07
2018-08-12T17:12:23.705Z,28.07
2018-08-12T17:13:23.753Z,28.05
2018-08-12T17:15:16.766Z,28.04
2018-08-12T17:16:16.822Z,28.04
2018-08-12T17:18:09.833Z,28.15
2018-08-12T17:19:09.891Z,28.11
2018-08-12T17:21:02.892Z,28.14
2018-08-12T17:22:02.960Z,28.07
2018-08-12T17:23:55.972Z,28.04
2018-08-12T17:24:56.034Z,28.04
2018-08-12T17:26:49.037Z,28.10
2018-08-12T17:27:49.106Z,28.05
2018-08-12T17:29:42.113Z,27.87
2018-08-12T17:30:42.174Z,27.95
2018-08-12T17:32:35.266Z,27.90
2018-08-12T17:33:35.251Z,27.82
2018-08-12T17:35:28.256Z,27.83
2018-08-12T17:36:28.319Z,27.78
2018-08-12T17:38:21.334Z,27.68
2018-08-12T17:39:21.394Z,27.68
2018-08-12T17:41:14.398Z,27.65
2018-08-12T17:42:14.460Z,27.63
2018-08-12T17:44:07.473Z,27.51
2018-08-12T17:45:07.533Z,27.48
2018-08-12T17:47:00.535Z,27.42
2018-08-12T17:48:00.611Z,27.49
2018-08-12T17:49:53.608Z,27.37
2018-08-12T17:50:53.676Z,27.35
2018-08-12T17:52:46.676Z,27.37
2018-08-12T17:53:46.745Z,27.35
2018-08-12T17:55:39.753Z,27.14
2018-08-12T17:56:39.812Z,27.05
2018-08-12T17:58:32.826Z,26.96
2018-08-12T17:59:32.884Z,26.99
2018-08-12T18:01:25.888Z,27.03
2018-08-12T18:02:25.952Z,26.99
2018-08-12T18:04:18.957Z,26.88
2018-08-12T18:05:19.032Z,26.90
2018-08-12T18:07:12.019Z,26.85
2018-08-12T18:08:12.088Z,26.80
2018-08-12T18:10:05.093Z,26.75
2018-08-12T18:11:05.154Z,26.73
2018-08-12T18:12:58.153Z,26.62
2018-08-12T18:13:58.222Z,26.60
2018-08-12T18:15:51.735Z,26.55
2018-08-12T18:16:51.795Z,26.56
2018-08-12T18:18:44.804Z,26.48
2018-08-12T18:19:44.865Z,26.47
2018-08-12T18:21:37.877Z,26.43
2018-08-12T18:22:37.935Z,26.31
2018-08-12T18:24:30.941Z,26.26
2018-08-12T18:25:31.003Z,26.25
2018-08-12T18:27:24.001Z,26.22
2018-08-12T18:28:24.069Z,26.16
2018-08-12T18:30:17.078Z,26.06
2018-08-12T18:31:17.138Z,26.06
2018-08-12T18:33:10.137Z,25.98
2018-08-12T18:34:10.204Z,25.91